Terminal Aerodrome Forecast
Issued by NWS

Home | Current Version | Previous Version | Graphics & Text | Print | Product List | Glossary Off
Versions: 1 2 3 4 5 6 7 8 9 10 11 12 13

000
FTUS43 KDDC 291725
TAFHYS
TAF
KHYS 291725Z 2918/3018 17007KT P6SM SKC
     FM292000 19013G20KT P6SM SKC
     FM300000 17008KT P6SM SKC
     FM300500 24006KT P6SM FEW250
     FM300900 32010KT P6SM FEW250
     FM301600 34016G22KT P6SM SKC=

USA.gov is the U.S. government's official web portal to all federal, state and local government web resources and services.